sensor_id;sensor_type;location;lat;lon;timestamp;pressure;altitude;pressure_sealevel;temperature;humidity
21879;BME280;27908;42.708;23.278;2023-06-05T00:02:01;64022.78;;;11.67;100.00
21879;BME280;27908;42.708;23.278;2023-06-05T00:04:27;64059.94;;;11.61;100.00
21879;BME280;27908;42.708;23.278;2023-06-05T00:06:53;64001.09;;;11.51;100.00
21879;BME280;27908;42.708;23.278;2023-06-05T00:09:18;64006.56;;;11.41;100.00
21879;BME280;27908;42.708;23.278;2023-06-05T00:11:44;64005.09;;;11.45;100.00
21879;BME280;27908;42.708;23.278;2023-06-05T00:14:10;63987.13;;;11.37;100.00
21879;BME280;27908;42.708;23.278;2023-06-05T00:16:35;64000.50;;;11.43;100.00
21879;BME280;27908;42.708;23.278;2023-06-05T00:19:01;63964.28;;;11.45;100.00
21879;BME280;27908;42.708;23.278;2023-06-05T00:21:27;64000.53;;;11.45;100.00
21879;BME280;27908;42.708;23.278;2023-06-05T00:23:53;63973.94;;;11.42;100.00
21879;BME280;27908;42.708;23.278;2023-06-05T00:26:18;64027.88;;;11.33;100.00
21879;BME280;27908;42.708;23.278;2023-06-05T00:28:44;64009.66;;;11.42;100.00
21879;BME280;27908;42.708;23.278;2023-06-05T00:31:09;63999.00;;;11.46;100.00
21879;BME280;27908;42.708;23.278;2023-06-05T00:33:35;63969.22;;;11.35;100.00
21879;BME280;27908;42.708;23.278;2023-06-05T00:36:00;63993.81;;;11.41;100.00
21879;BME280;27908;42.708;23.278;2023-06-05T00:38:26;64008.16;;;11.43;100.00
21879;BME280;27908;42.708;23.278;2023-06-05T00:40:51;64003.00;;;11.40;100.00
21879;BME280;27908;42.708;23.278;2023-06-05T00:43:17;63994.75;;;11.35;100.00
21879;BME280;27908;42.708;23.278;2023-06-05T00:45:42;63985.13;;;11.40;100.00
21879;BME280;27908;42.708;23.278;2023-06-05T00:48:08;63959.66;;;11.43;100.00
21879;BME280;27908;42.708;23.278;2023-06-05T00:50:34;63992.34;;;11.45;100.00
21879;BME280;27908;42.708;23.278;2023-06-05T00:53:03;63977.06;;;11.47;100.00
21879;BME280;27908;42.708;23.278;2023-06-05T00:55:30;63996.97;;;11.47;100.00
21879;BME280;27908;42.708;23.278;2023-06-05T00:57:56;63971.88;;;11.42;100.00
21879;BME280;27908;42.708;23.278;2023-06-05T01:00:22;63979.97;;;11.36;100.00
21879;BME280;27908;42.708;23.278;2023-06-05T01:02:48;63978.91;;;11.35;100.00
21879;BME280;27908;42.708;23.278;2023-06-05T01:05:13;63999.28;;;11.30;100.00
21879;BME280;27908;42.708;23.278;2023-06-05T01:07:39;63987.41;;;11.21;100.00
21879;BME280;27908;42.708;23.278;2023-06-05T01:10:06;63979.47;;;11.37;100.00
21879;BME280;27908;42.708;23.278;2023-06-05T01:15:06;64001.53;;;11.44;100.00
21879;BME280;27908;42.708;23.278;2023-06-05T01:17:31;64029.63;;;11.46;100.00
21879;BME280;27908;42.708;23.278;2023-06-05T01:19:59;64136.31;;;11.46;100.00
21879;BME280;27908;42.708;23.278;2023-06-05T01:22:35;63992.34;;;11.45;100.00
21879;BME280;27908;42.708;23.278;2023-06-05T01:25:05;63982.75;;;11.53;100.00
21879;BME280;27908;42.708;23.278;2023-06-05T01:30:30;64021.56;;;11.53;100.00
21879;BME280;27908;42.708;23.278;2023-06-05T01:33:05;63996.06;;;11.56;100.00
21879;BME280;27908;42.708;23.278;2023-06-05T01:35:34;63973.84;;;11.37;100.00
21879;BME280;27908;42.708;23.278;2023-06-05T01:38:01;64006.69;;;11.49;100.00
21879;BME280;27908;42.708;23.278;2023-06-05T01:40:29;63991.31;;;11.44;100.00
21879;BME280;27908;42.708;23.278;2023-06-05T01:42:56;63984.69;;;11.45;100.00
21879;BME280;27908;42.708;23.278;2023-06-05T01:45:23;64025.41;;;11.37;100.00
21879;BME280;27908;42.708;23.278;2023-06-05T01:47:49;63980.31;;;11.24;100.00
21879;BME280;27908;42.708;23.278;2023-06-05T01:50:16;63978.25;;;11.22;100.00
21879;BME280;27908;42.708;23.278;2023-06-05T01:52:42;63935.28;;;11.15;100.00
21879;BME280;27908;42.708;23.278;2023-06-05T01:55:17;63944.47;;;11.14;100.00
21879;BME280;27908;42.708;23.278;2023-06-05T01:57:45;63932.59;;;11.05;100.00
21879;BME280;27908;42.708;23.278;2023-06-05T02:00:11;63916.72;;;11.00;100.00
21879;BME280;27908;42.708;23.278;2023-06-05T02:02:44;63929.97;;;10.98;100.00
21879;BME280;27908;42.708;23.278;2023-06-05T02:05:12;63906.41;;;10.92;100.00
21879;BME280;27908;42.708;23.278;2023-06-05T02:07:38;63938.06;;;10.93;100.00
21879;BME280;27908;42.708;23.278;2023-06-05T02:10:06;63865.44;;;10.77;100.00
21879;BME280;27908;42.708;23.278;2023-06-05T02:12:32;63910.81;;;10.77;100.00
21879;BME280;27908;42.708;23.278;2023-06-05T02:14:59;63926.66;;;10.80;100.00
21879;BME280;27908;42.708;23.278;2023-06-05T02:17:24;63916.94;;;10.78;100.00
21879;BME280;27908;42.708;23.278;2023-06-05T02:19:50;63880.16;;;10.72;100.00
21879;BME280;27908;42.708;23.278;2023-06-05T02:22:16;63881.75;;;10.78;100.00
21879;BME280;27908;42.708;23.278;2023-06-05T02:24:41;63904.63;;;10.73;100.00
21879;BME280;27908;42.708;23.278;2023-06-05T02:27:08;63918.47;;;10.77;100.00
21879;BME280;27908;42.708;23.278;2023-06-05T02:29:33;63894.38;;;10.68;100.00
21879;BME280;27908;42.708;23.278;2023-06-05T02:31:59;63907.09;;;10.66;100.00
21879;BME280;27908;42.708;23.278;2023-06-05T02:34:24;63866.56;;;10.47;100.00
21879;BME280;27908;42.708;23.278;2023-06-05T02:36:50;63894.31;;;10.64;100.00
21879;BME280;27908;42.708;23.278;2023-06-05T02:39:16;63879.63;;;10.71;100.00
21879;BME280;27908;42.708;23.278;2023-06-05T02:41:42;63895.91;;;10.70;100.00
21879;BME280;27908;42.708;23.278;2023-06-05T02:44:09;63860.72;;;10.68;100.00
21879;BME280;27908;42.708;23.278;2023-06-05T02:46:34;63887.69;;;10.64;100.00
21879;BME280;27908;42.708;23.278;2023-06-05T02:49:00;63885.06;;;10.60;100.00
21879;BME280;27908;42.708;23.278;2023-06-05T02:51:25;63856.09;;;10.66;100.00
21879;BME280;27908;42.708;23.278;2023-06-05T02:53:50;63920.88;;;10.67;100.00
21879;BME280;27908;42.708;23.278;2023-06-05T02:56:16;63882.66;;;10.69;100.00
21879;BME280;27908;42.708;23.278;2023-06-05T02:58:43;63913.63;;;10.60;100.00
21879;BME280;27908;42.708;23.278;2023-06-05T03:01:09;63890.38;;;10.74;100.00
21879;BME280;27908;42.708;23.278;2023-06-05T03:03:36;64049.13;;;10.56;100.00
21879;BME280;27908;42.708;23.278;2023-06-05T03:06:03;63890.78;;;10.67;100.00
21879;BME280;27908;42.708;23.278;2023-06-05T03:08:33;63900.53;;;10.72;100.00
21879;BME280;27908;42.708;23.278;2023-06-05T03:10:59;63871.34;;;10.61;100.00
21879;BME280;27908;42.708;23.278;2023-06-05T03:13:25;63875.84;;;10.56;100.00
21879;BME280;27908;42.708;23.278;2023-06-05T03:15:50;63921.84;;;10.65;100.00
21879;BME280;27908;42.708;23.278;2023-06-05T03:18:19;63847.22;;;10.50;100.00
21879;BME280;27908;42.708;23.278;2023-06-05T03:20:47;63900.41;;;10.62;100.00
21879;BME280;27908;42.708;23.278;2023-06-05T03:23:12;63881.13;;;10.68;100.00
21879;BME280;27908;42.708;23.278;2023-06-05T03:25:38;63878.56;;;10.68;100.00
21879;BME280;27908;42.708;23.278;2023-06-05T03:28:03;63888.00;;;10.50;100.00
21879;BME280;27908;42.708;23.278;2023-06-05T03:30:29;63908.03;;;10.62;100.00
21879;BME280;27908;42.708;23.278;2023-06-05T03:32:54;63931.19;;;10.77;100.00
21879;BME280;27908;42.708;23.278;2023-06-05T03:35:19;63932.91;;;10.91;100.00
21879;BME280;27908;42.708;23.278;2023-06-05T03:37:45;63938.59;;;10.96;100.00
21879;BME280;27908;42.708;23.278;2023-06-05T03:40:11;63914.91;;;10.78;100.00
21879;BME280;27908;42.708;23.278;2023-06-05T03:42:37;63960.03;;;10.97;100.00
21879;BME280;27908;42.708;23.278;2023-06-05T03:45:03;63931.59;;;11.06;100.00
21879;BME280;27908;42.708;23.278;2023-06-05T03:47:28;63957.72;;;11.14;100.00
21879;BME280;27908;42.708;23.278;2023-06-05T03:49:54;63980.81;;;11.24;100.00
21879;BME280;27908;42.708;23.278;2023-06-05T03:52:21;64006.38;;;11.27;100.00
21879;BME280;27908;42.708;23.278;2023-06-05T03:54:50;64021.78;;;11.34;100.00
21879;BME280;27908;42.708;23.278;2023-06-05T03:57:19;64023.41;;;11.40;100.00
21879;BME280;27908;42.708;23.278;2023-06-05T03:59:45;64001.91;;;11.37;100.00
21879;BME280;27908;42.708;23.278;2023-06-05T04:02:12;64019.50;;;11.51;100.00
21879;BME280;27908;42.708;23.278;2023-06-05T04:04:38;64034.94;;;11.61;100.00
21879;BME280;27908;42.708;23.278;2023-06-05T04:07:03;64022.13;;;11.56;100.00
21879;BME280;27908;42.708;23.278;2023-06-05T04:09:29;64040.69;;;11.72;100.00
21879;BME280;27908;42.708;23.278;2023-06-05T04:11:54;64086.66;;;11.72;100.00
21879;BME280;27908;42.708;23.278;2023-06-05T04:14:20;64082.63;;;11.75;100.00
21879;BME280;27908;42.708;23.278;2023-06-05T04:16:45;64033.75;;;11.48;100.00
21879;BME280;27908;42.708;23.278;2023-06-05T04:19:12;64078.16;;;11.85;100.00
21879;BME280;27908;42.708;23.278;2023-06-05T04:21:38;64065.47;;;11.90;100.00
21879;BME280;27908;42.708;23.278;2023-06-05T04:24:07;64109.56;;;12.01;100.00
21879;BME280;27908;42.708;23.278;2023-06-05T04:26:35;64144.53;;;12.17;100.00
21879;BME280;27908;42.708;23.278;2023-06-05T04:29:02;64169.69;;;12.26;100.00
21879;BME280;27908;42.708;23.278;2023-06-05T04:31:31;64145.25;;;12.32;100.00
21879;BME280;27908;42.708;23.278;2023-06-05T04:33:58;64174.72;;;12.55;100.00
21879;BME280;27908;42.708;23.278;2023-06-05T04:36:26;64213.16;;;12.63;100.00
21879;BME280;27908;42.708;23.278;2023-06-05T04:38:52;64228.66;;;12.73;100.00
21879;BME280;27908;42.708;23.278;2023-06-05T04:41:18;64249.72;;;12.78;100.00
21879;BME280;27908;42.708;23.278;2023-06-05T04:43:43;64235.00;;;12.86;100.00
21879;BME280;27908;42.708;23.278;2023-06-05T04:46:08;64198.53;;;12.76;100.00
21879;BME280;27908;42.708;23.278;2023-06-05T04:48:34;64247.78;;;12.86;100.00
21879;BME280;27908;42.708;23.278;2023-06-05T04:51:00;64242.22;;;12.90;100.00
21879;BME280;27908;42.708;23.278;2023-06-05T04:53:25;64300.63;;;12.95;100.00
21879;BME280;27908;42.708;23.278;2023-06-05T04:55:54;64288.00;;;13.07;100.00
21879;BME280;27908;42.708;23.278;2023-06-05T04:58:20;64256.31;;;13.09;100.00
21879;BME280;27908;42.708;23.278;2023-06-05T05:00:47;64312.19;;;13.15;100.00
21879;BME280;27908;42.708;23.278;2023-06-05T05:03:14;64343.94;;;13.16;100.00
21879;BME280;27908;42.708;23.278;2023-06-05T05:05:39;64318.03;;;13.31;100.00
21879;BME280;27908;42.708;23.278;2023-06-05T05:08:05;64344.22;;;13.36;100.00
21879;BME280;27908;42.708;23.278;2023-06-05T05:10:31;64301.25;;;13.39;100.00
21879;BME280;27908;42.708;23.278;2023-06-05T05:12:57;64359.69;;;13.44;100.00
21879;BME280;27908;42.708;23.278;2023-06-05T05:15:26;64374.28;;;13.60;100.00
21879;BME280;27908;42.708;23.278;2023-06-05T05:17:52;64382.63;;;13.70;100.00
21879;BME280;27908;42.708;23.278;2023-06-05T05:20:17;64422.13;;;13.74;100.00
21879;BME280;27908;42.708;23.278;2023-06-05T05:22:44;64428.38;;;13.80;100.00
21879;BME280;27908;42.708;23.278;2023-06-05T05:25:10;64397.53;;;13.75;100.00
21879;BME280;27908;42.708;23.278;2023-06-05T05:27:36;64434.78;;;13.98;100.00
21879;BME280;27908;42.708;23.278;2023-06-05T05:30:01;64478.50;;;14.05;100.00
21879;BME280;27908;42.708;23.278;2023-06-05T05:32:28;64470.94;;;14.15;100.00
21879;BME280;27908;42.708;23.278;2023-06-05T05:34:53;64446.41;;;14.21;100.00
21879;BME280;27908;42.708;23.278;2023-06-05T05:37:18;64473.25;;;14.32;100.00
21879;BME280;27908;42.708;23.278;2023-06-05T05:39:44;64492.34;;;14.40;100.00
21879;BME280;27908;42.708;23.278;2023-06-05T05:42:10;64577.34;;;14.65;100.00
21879;BME280;27908;42.708;23.278;2023-06-05T05:44:35;64552.84;;;14.73;100.00
21879;BME280;27908;42.708;23.278;2023-06-05T05:47:01;64571.91;;;14.77;100.00
21879;BME280;27908;42.708;23.278;2023-06-05T05:49:26;64599.25;;;14.88;100.00
21879;BME280;27908;42.708;23.278;2023-06-05T05:51:52;64569.53;;;14.92;100.00
21879;BME280;27908;42.708;23.278;2023-06-05T05:54:17;64625.84;;;15.13;100.00
21879;BME280;27908;42.708;23.278;2023-06-05T05:56:43;64705.75;;;15.33;100.00
21879;BME280;27908;42.708;23.278;2023-06-05T05:59:09;64640.56;;;15.37;100.00
21879;BME280;27908;42.708;23.278;2023-06-05T06:01:34;64658.13;;;15.41;100.00
21879;BME280;27908;42.708;23.278;2023-06-05T06:04:00;64722.25;;;15.68;100.00
21879;BME280;27908;42.708;23.278;2023-06-05T06:06:25;64746.56;;;15.79;100.00
21879;BME280;27908;42.708;23.278;2023-06-05T06:08:51;64764.66;;;15.84;100.00
21879;BME280;27908;42.708;23.278;2023-06-05T06:11:16;64825.34;;;16.17;100.00
21879;BME280;27908;42.708;23.278;2023-06-05T06:13:43;64823.06;;;16.37;100.00
21879;BME280;27908;42.708;23.278;2023-06-05T06:16:08;64889.63;;;16.48;100.00
21879;BME280;27908;42.708;23.278;2023-06-05T06:18:34;64938.22;;;16.60;100.00
21879;BME280;27908;42.708;23.278;2023-06-05T06:21:00;64960.34;;;16.59;100.00
21879;BME280;27908;42.708;23.278;2023-06-05T06:23:25;64901.81;;;16.70;100.00
21879;BME280;27908;42.708;23.278;2023-06-05T06:25:51;64941.28;;;16.90;100.00
21879;BME280;27908;42.708;23.278;2023-06-05T06:28:17;64972.38;;;16.71;100.00
21879;BME280;27908;42.708;23.278;2023-06-05T06:30:43;65023.59;;;17.14;100.00
21879;BME280;27908;42.708;23.278;2023-06-05T06:33:08;64987.97;;;17.09;100.00
21879;BME280;27908;42.708;23.278;2023-06-05T06:35:34;65013.41;;;17.21;100.00
21879;BME280;27908;42.708;23.278;2023-06-05T06:38:00;65052.16;;;17.26;100.00
21879;BME280;27908;42.708;23.278;2023-06-05T06:40:26;65047.22;;;17.41;100.00
21879;BME280;27908;42.708;23.278;2023-06-05T06:42:54;65041.59;;;17.43;100.00
21879;BME280;27908;42.708;23.278;2023-06-05T06:45:19;65085.50;;;17.48;100.00
21879;BME280;27908;42.708;23.278;2023-06-05T06:47:46;65109.03;;;17.68;100.00
21879;BME280;27908;42.708;23.278;2023-06-05T06:50:12;65110.31;;;17.83;100.00
21879;BME280;27908;42.708;23.278;2023-06-05T06:52:38;65137.03;;;17.77;100.00
21879;BME280;27908;42.708;23.278;2023-06-05T06:55:05;65170.72;;;17.84;100.00
21879;BME280;27908;42.708;23.278;2023-06-05T06:57:31;65198.38;;;18.03;100.00
21879;BME280;27908;42.708;23.278;2023-06-05T06:59:56;65222.03;;;18.28;100.00
21879;BME280;27908;42.708;23.278;2023-06-05T07:02:24;65255.63;;;18.30;100.00
21879;BME280;27908;42.708;23.278;2023-06-05T07:04:50;65268.56;;;18.33;100.00
21879;BME280;27908;42.708;23.278;2023-06-05T07:07:19;65244.91;;;18.37;100.00
21879;BME280;27908;42.708;23.278;2023-06-05T07:09:48;65266.94;;;18.58;100.00
21879;BME280;27908;42.708;23.278;2023-06-05T07:12:15;65328.91;;;18.55;100.00
21879;BME280;27908;42.708;23.278;2023-06-05T07:14:41;65285.00;;;18.55;100.00
21879;BME280;27908;42.708;23.278;2023-06-05T07:17:07;65304.31;;;18.69;100.00
21879;BME280;27908;42.708;23.278;2023-06-05T07:19:34;65344.56;;;18.65;100.00
21879;BME280;27908;42.708;23.278;2023-06-05T07:22:02;65299.03;;;18.32;100.00
21879;BME280;27908;42.708;23.278;2023-06-05T07:24:29;65280.19;;;18.46;100.00
21879;BME280;27908;42.708;23.278;2023-06-05T07:26:59;65348.88;;;18.74;100.00
21879;BME280;27908;42.708;23.278;2023-06-05T07:29:25;65395.81;;;18.99;96.24
21879;BME280;27908;42.708;23.278;2023-06-05T07:31:56;65441.13;;;19.17;93.87
21879;BME280;27908;42.708;23.278;2023-06-05T07:34:23;65387.59;;;19.01;96.19
21879;BME280;27908;42.708;23.278;2023-06-05T07:36:49;65463.59;;;19.28;97.08
21879;BME280;27908;42.708;23.278;2023-06-05T07:39:17;65513.75;;;19.56;95.08
21879;BME280;27908;42.708;23.278;2023-06-05T07:41:43;65535.19;;;19.69;94.48
21879;BME280;27908;42.708;23.278;2023-06-05T07:44:14;65567.59;;;19.85;91.19
21879;BME280;27908;42.708;23.278;2023-06-05T07:46:40;65638.91;;;20.05;89.37
21879;BME280;27908;42.708;23.278;2023-06-05T07:49:06;65604.25;;;20.07;87.27
21879;BME280;27908;42.708;23.278;2023-06-05T07:51:32;65630.25;;;20.12;87.36
21879;BME280;27908;42.708;23.278;2023-06-05T07:54:08;65677.75;;;20.32;86.55
21879;BME280;27908;42.708;23.278;2023-06-05T07:56:34;65685.09;;;20.36;83.40
21879;BME280;27908;42.708;23.278;2023-06-05T07:59:03;65692.47;;;20.43;84.59
21879;BME280;27908;42.708;23.278;2023-06-05T08:01:29;65753.19;;;20.47;88.24
21879;BME280;27908;42.708;23.278;2023-06-05T08:03:55;65707.66;;;20.50;84.68
21879;BME280;27908;42.708;23.278;2023-06-05T08:06:21;65701.00;;;20.56;81.75
21879;BME280;27908;42.708;23.278;2023-06-05T08:08:49;65805.84;;;20.62;85.03
21879;BME280;27908;42.708;23.278;2023-06-05T08:11:15;65798.25;;;20.72;84.97
21879;BME280;27908;42.708;23.278;2023-06-05T08:13:40;65819.63;;;20.77;81.56
21879;BME280;27908;42.708;23.278;2023-06-05T08:16:05;65779.13;;;20.73;87.63
21879;BME280;27908;42.708;23.278;2023-06-05T08:18:32;65673.00;;;20.28;82.69
21879;BME280;27908;42.708;23.278;2023-06-05T08:20:57;65716.31;;;20.44;88.11
21879;BME280;27908;42.708;23.278;2023-06-05T08:23:23;65742.69;;;20.42;90.29
21879;BME280;27908;42.708;23.278;2023-06-05T08:25:48;65716.19;;;20.36;89.40
21879;BME280;27908;42.708;23.278;2023-06-05T08:28:14;65727.97;;;20.57;88.77
21879;BME280;27908;42.708;23.278;2023-06-05T08:30:41;65744.50;;;20.53;90.66
21879;BME280;27908;42.708;23.278;2023-06-05T08:33:06;65842.75;;;20.92;90.39
21879;BME280;27908;42.708;23.278;2023-06-05T08:35:32;65900.00;;;21.02;85.10
21879;BME280;27908;42.708;23.278;2023-06-05T08:37:57;65868.00;;;21.10;82.44
21879;BME280;27908;42.708;23.278;2023-06-05T08:40:27;65914.28;;;21.15;81.64
21879;BME280;27908;42.708;23.278;2023-06-05T08:42:54;65918.56;;;21.45;83.66
21879;BME280;27908;42.708;23.278;2023-06-05T08:45:19;65948.69;;;21.47;79.96
21879;BME280;27908;42.708;23.278;2023-06-05T08:47:50;65966.34;;;21.46;78.34
21879;BME280;27908;42.708;23.278;2023-06-05T08:50:16;65996.53;;;21.50;79.08
21879;BME280;27908;42.708;23.278;2023-06-05T08:52:43;65976.22;;;21.73;78.53
21879;BME280;27908;42.708;23.278;2023-06-05T08:55:10;66085.34;;;21.99;79.37
21879;BME280;27908;42.708;23.278;2023-06-05T08:57:38;66068.31;;;22.05;76.58
21879;BME280;27908;42.708;23.278;2023-06-05T09:00:06;66122.63;;;22.17;75.31
21879;BME280;27908;42.708;23.278;2023-06-05T09:02:41;66030.91;;;21.80;77.84
21879;BME280;27908;42.708;23.278;2023-06-05T09:05:15;66074.78;;;21.92;73.92
21879;BME280;27908;42.708;23.278;2023-06-05T09:07:41;66118.16;;;22.03;72.26
21879;BME280;27908;42.708;23.278;2023-06-05T09:10:21;65946.63;;;21.47;72.82
21879;BME280;27908;42.708;23.278;2023-06-05T09:12:58;66042.91;;;21.84;74.25
21879;BME280;27908;42.708;23.278;2023-06-05T09:15:28;66072.28;;;21.97;74.58
21879;BME280;27908;42.708;23.278;2023-06-05T09:18:13;66095.09;;;21.94;80.42
21879;BME280;27908;42.708;23.278;2023-06-05T09:20:41;66131.19;;;22.06;80.28
21879;BME280;27908;42.708;23.278;2023-06-05T09:23:27;66019.66;;;21.89;74.09
21879;BME280;27908;42.708;23.278;2023-06-05T09:25:58;66095.41;;;22.09;76.04
21879;BME280;27908;42.708;23.278;2023-06-05T09:28:24;66149.91;;;22.06;76.88
21879;BME280;27908;42.708;23.278;2023-06-05T09:33:28;66254.50;;;22.79;73.78
21879;BME280;27908;42.708;23.278;2023-06-05T09:38:32;66435.75;;;23.29;74.93
21879;BME280;27908;42.708;23.278;2023-06-05T09:41:05;66412.31;;;23.29;73.99
21879;BME280;27908;42.708;23.278;2023-06-05T09:43:30;66431.97;;;23.45;71.21
21879;BME280;27908;42.708;23.278;2023-06-05T09:45:56;66449.66;;;23.44;71.83
21879;BME280;27908;42.708;23.278;2023-06-05T09:48:21;66371.31;;;23.34;68.99
21879;BME280;27908;42.708;23.278;2023-06-05T09:50:47;66490.16;;;23.60;67.98
21879;BME280;27908;42.708;23.278;2023-06-05T09:53:15;66395.69;;;23.30;66.45
21879;BME280;27908;42.708;23.278;2023-06-05T09:55:42;66450.47;;;23.35;73.12
21879;BME280;27908;42.708;23.278;2023-06-05T09:58:11;66505.66;;;23.55;73.25
21879;BME280;27908;42.708;23.278;2023-06-05T10:00:39;66501.69;;;23.63;69.07
21879;BME280;27908;42.708;23.278;2023-06-05T10:03:14;66473.03;;;23.42;67.89
21879;BME280;27908;42.708;23.278;2023-06-05T10:05:43;66362.53;;;23.14;70.95
21879;BME280;27908;42.708;23.278;2023-06-05T10:08:11;66325.63;;;22.94;70.94
21879;BME280;27908;42.708;23.278;2023-06-05T10:10:38;66187.06;;;22.41;70.47
21879;BME280;27908;42.708;23.278;2023-06-05T10:13:04;66207.03;;;22.49;71.38
21879;BME280;27908;42.708;23.278;2023-06-05T10:15:31;66196.78;;;22.33;72.40
21879;BME280;27908;42.708;23.278;2023-06-05T10:17:57;66098.97;;;22.05;74.22
21879;BME280;27908;42.708;23.278;2023-06-05T10:20:22;66074.59;;;21.82;75.26
21879;BME280;27908;42.708;23.278;2023-06-05T10:22:49;66076.00;;;22.00;75.03
21879;BME280;27908;42.708;23.278;2023-06-05T10:25:17;66067.06;;;21.94;73.99
21879;BME280;27908;42.708;23.278;2023-06-05T10:31:09;66118.22;;;22.30;77.33
21879;BME280;27908;42.708;23.278;2023-06-05T10:34:02;66192.28;;;22.41;70.55
21879;BME280;27908;42.708;23.278;2023-06-05T10:39:31;66350.28;;;23.03;70.01
21879;BME280;27908;42.708;23.278;2023-06-05T10:41:58;66367.41;;;23.23;70.72
21879;BME280;27908;42.708;23.278;2023-06-05T10:44:50;66440.81;;;23.46;68.63
21879;BME280;27908;42.708;23.278;2023-06-05T10:52:47;66429.06;;;23.32;72.95
21879;BME280;27908;42.708;23.278;2023-06-05T10:55:13;66460.59;;;23.45;67.49
21879;BME280;27908;42.708;23.278;2023-06-05T10:58:05;66461.25;;;23.50;70.00
21879;BME280;27908;42.708;23.278;2023-06-05T11:00:33;66483.09;;;23.70;74.46
21879;BME280;27908;42.708;23.278;2023-06-05T11:02:59;66487.13;;;23.64;71.59
21879;BME280;27908;42.708;23.278;2023-06-05T11:06:12;66488.16;;;23.63;69.67
21879;BME280;27908;42.708;23.278;2023-06-05T11:08:37;66438.47;;;23.56;69.06
21879;BME280;27908;42.708;23.278;2023-06-05T11:11:05;66520.47;;;23.64;67.38
21879;BME280;27908;42.708;23.278;2023-06-05T11:13:54;66477.00;;;23.55;68.78
21879;BME280;27908;42.708;23.278;2023-06-05T11:16:29;66484.34;;;23.57;67.68
21879;BME280;27908;42.708;23.278;2023-06-05T11:22:03;66598.19;;;23.88;71.00
21879;BME280;27908;42.708;23.278;2023-06-05T11:24:29;66617.72;;;23.98;68.63
21879;BME280;27908;42.708;23.278;2023-06-05T11:26:54;66620.09;;;24.10;66.98
21879;BME280;27908;42.708;23.278;2023-06-05T11:29:20;66709.06;;;24.23;67.11
21879;BME280;27908;42.708;23.278;2023-06-05T11:31:48;66698.91;;;24.32;67.11
21879;BME280;27908;42.708;23.278;2023-06-05T11:34:14;66700.88;;;24.49;67.17
21879;BME280;27908;42.708;23.278;2023-06-05T11:36:40;66722.44;;;24.54;67.92
21879;BME280;27908;42.708;23.278;2023-06-05T11:39:06;66823.41;;;24.85;67.45
21879;BME280;27908;42.708;23.278;2023-06-05T11:41:33;66808.81;;;24.86;65.35
21879;BME280;27908;42.708;23.278;2023-06-05T11:43:58;66831.44;;;24.92;66.50
21879;BME280;27908;42.708;23.278;2023-06-05T11:46:56;66870.28;;;24.99;61.50
21879;BME280;27908;42.708;23.278;2023-06-05T11:49:28;66874.97;;;24.99;62.58
21879;BME280;27908;42.708;23.278;2023-06-05T11:51:55;66861.78;;;24.94;61.57
21879;BME280;27908;42.708;23.278;2023-06-05T11:54:25;66876.56;;;24.81;60.76
21879;BME280;27908;42.708;23.278;2023-06-05T11:56:56;66825.63;;;24.89;64.25
21879;BME280;27908;42.708;23.278;2023-06-05T11:59:22;66818.00;;;24.97;64.86
21879;BME280;27908;42.708;23.278;2023-06-05T12:01:49;66936.03;;;24.97;63.89
21879;BME280;27908;42.708;23.278;2023-06-05T12:04:19;66812.25;;;24.77;61.00
21879;BME280;27908;42.708;23.278;2023-06-05T12:06:46;66804.34;;;24.74;60.42
21879;BME280;27908;42.708;23.278;2023-06-05T12:09:13;66778.19;;;24.72;59.83
21879;BME280;27908;42.708;23.278;2023-06-05T12:11:41;66755.72;;;24.70;60.26
21879;BME280;27908;42.708;23.278;2023-06-05T12:14:10;66833.59;;;24.75;62.23
21879;BME280;27908;42.708;23.278;2023-06-05T12:16:40;66686.91;;;24.53;59.90
21879;BME280;27908;42.708;23.278;2023-06-05T12:19:13;66779.25;;;24.73;59.72
21879;BME280;27908;42.708;23.278;2023-06-05T12:21:38;66863.31;;;25.12;65.80
21879;BME280;27908;42.708;23.278;2023-06-05T12:24:05;66989.47;;;25.41;59.65
21879;BME280;27908;42.708;23.278;2023-06-05T12:26:50;67054.22;;;25.77;61.62
21879;BME280;27908;42.708;23.278;2023-06-05T12:29:21;67119.09;;;25.96;58.67
21879;BME280;27908;42.708;23.278;2023-06-05T12:31:47;67160.72;;;26.24;59.86
21879;BME280;27908;42.708;23.278;2023-06-05T12:34:13;67189.38;;;26.39;54.72
21879;BME280;27908;42.708;23.278;2023-06-05T12:36:41;67256.75;;;26.52;54.82
21879;BME280;27908;42.708;23.278;2023-06-05T12:39:14;67274.53;;;26.69;55.21
21879;BME280;27908;42.708;23.278;2023-06-05T12:41:41;67421.06;;;27.00;53.48
21879;BME280;27908;42.708;23.278;2023-06-05T12:44:07;67594.59;;;27.67;53.93
21879;BME280;27908;42.708;23.278;2023-06-05T12:46:35;67615.97;;;27.63;51.10
21879;BME280;27908;42.708;23.278;2023-06-05T12:49:02;67775.25;;;28.20;49.33
21879;BME280;27908;42.708;23.278;2023-06-05T12:51:28;67884.16;;;28.57;52.75
21879;BME280;27908;42.708;23.278;2023-06-05T12:53:54;67907.38;;;28.75;51.27
21879;BME280;27908;42.708;23.278;2023-06-05T12:56:21;68289.47;;;30.00;47.70
21879;BME280;27908;42.708;23.278;2023-06-05T12:58:51;68537.19;;;30.72;44.12
21879;BME280;27908;42.708;23.278;2023-06-05T13:01:16;68360.78;;;30.34;45.60
21879;BME280;27908;42.708;23.278;2023-06-05T13:03:42;68018.53;;;29.29;45.84
21879;BME280;27908;42.708;23.278;2023-06-05T13:06:08;68075.16;;;29.54;45.60
21879;BME280;27908;42.708;23.278;2023-06-05T13:08:33;68414.41;;;30.44;46.44
21879;BME280;27908;42.708;23.278;2023-06-05T13:10:59;68491.19;;;30.68;44.38
21879;BME280;27908;42.708;23.278;2023-06-05T13:13:25;68688.47;;;31.22;44.14